createdAt,value
2023-10-31T00:01:38.122Z,98395.03
2023-10-31T00:04:06.652Z,98384.88
2023-10-31T00:06:34.654Z,98386.47
2023-10-31T00:09:04.110Z,98390.19
2023-10-31T00:11:32.094Z,98391.78
2023-10-31T00:14:00.126Z,98393.66
2023-10-31T00:16:28.260Z,98390.47
2023-10-31T00:18:56.303Z,98384.50
2023-10-31T00:21:24.299Z,98381.03
2023-10-31T00:23:52.277Z,98379.94
2023-10-31T00:26:21.833Z,98376.13
2023-10-31T00:28:49.866Z,98377.75
2023-10-31T00:31:17.945Z,98384.72
2023-10-31T00:33:46.017Z,98386.00
2023-10-31T00:36:14.201Z,98383.91
2023-10-31T00:38:42.173Z,98379.34
2023-10-31T00:41:10.292Z,98386.38
2023-10-31T00:43:39.700Z,98382.88
2023-10-31T00:46:07.865Z,98390.38
2023-10-31T00:48:37.646Z,98388.25
2023-10-31T00:51:06.059Z,98385.31
2023-10-31T00:53:34.584Z,98378.88
2023-10-31T00:56:04.231Z,98374.78
2023-10-31T00:58:32.286Z,98381.03
2023-10-31T01:01:01.752Z,98380.75
2023-10-31T01:03:30.142Z,98383.19
2023-10-31T01:05:58.318Z,98367.59
2023-10-31T01:08:26.332Z,98354.97
2023-10-31T01:10:57.294Z,98372.97
2023-10-31T01:13:25.308Z,98376.47
2023-10-31T01:15:53.391Z,98363.59
2023-10-31T01:18:22.764Z,98358.50
2023-10-31T01:20:50.997Z,98360.13
2023-10-31T01:23:18.943Z,98349.91
2023-10-31T01:25:46.932Z,98342.66
2023-10-31T01:28:14.950Z,98351.03
2023-10-31T01:30:42.922Z,98348.34
2023-10-31T01:33:11.059Z,98351.25
2023-10-31T01:35:40.490Z,98353.72
2023-10-31T01:38:08.523Z,98366.88
2023-10-31T01:40:36.620Z,98360.19
2023-10-31T01:43:04.609Z,98366.16
2023-10-31T01:45:32.589Z,98360.22
2023-10-31T01:48:00.937Z,98362.34
2023-10-31T01:50:29.939Z,98358.03
2023-10-31T01:52:59.394Z,98358.56
2023-10-31T01:55:28.639Z,98356.69
2023-10-31T01:57:57.061Z,98361.53
2023-10-31T02:00:25.060Z,98346.50
2023-10-31T02:02:56.105Z,98349.97
2023-10-31T02:05:24.091Z,98353.25
2023-10-31T02:07:52.221Z,98358.63
2023-10-31T02:10:21.709Z,98360.25
2023-10-31T02:12:49.726Z,98359.75
2023-10-31T02:15:17.721Z,98355.00
2023-10-31T02:17:45.838Z,98343.13
2023-10-31T02:20:14.148Z,98348.44
2023-10-31T02:22:43.826Z,98339.84
2023-10-31T02:25:19.233Z,98342.53
2023-10-31T02:27:47.469Z,98339.56
2023-10-31T02:30:15.736Z,98350.91
2023-10-31T02:32:44.023Z,98360.25
2023-10-31T02:35:12.469Z,98348.97
2023-10-31T02:37:40.572Z,98355.19
2023-10-31T02:40:11.438Z,98352.78
2023-10-31T02:42:39.415Z,98349.50
2023-10-31T02:45:08.508Z,98332.09
2023-10-31T02:47:36.528Z,98322.38
2023-10-31T02:50:05.015Z,98328.03
2023-10-31T02:52:33.226Z,98326.16
2023-10-31T02:55:01.235Z,98323.78
2023-10-31T02:57:29.655Z,98327.22
2023-10-31T02:59:57.585Z,98325.06
2023-10-31T03:02:25.930Z,98347.91
2023-10-31T03:04:56.767Z,98345.25
2023-10-31T03:07:24.778Z,98350.63
2023-10-31T03:09:52.783Z,98352.25
2023-10-31T03:12:20.849Z,98338.75
2023-10-31T03:14:50.257Z,98339.28
2023-10-31T03:17:20.472Z,98339.56
2023-10-31T03:19:48.731Z,98340.63
2023-10-31T03:22:16.715Z,98348.09
2023-10-31T03:24:44.677Z,98351.38
2023-10-31T03:27:12.667Z,98354.81
2023-10-31T03:29:40.649Z,98354.81
2023-10-31T03:32:11.237Z,98366.66
2023-10-31T03:34:39.709Z,98361.59
2023-10-31T03:37:08.660Z,98364.53
2023-10-31T03:39:36.472Z,98358.84
2023-10-31T03:42:04.510Z,98366.66
2023-10-31T03:44:32.493Z,98372.53
2023-10-31T03:47:00.452Z,98360.72
2023-10-31T03:49:29.950Z,98362.91
2023-10-31T03:51:57.929Z,98359.91
2023-10-31T03:54:25.899Z,98365.09
2023-10-31T03:56:53.865Z,98366.69
2023-10-31T03:59:21.833Z,98369.94
2023-10-31T04:01:49.822Z,98367.22
2023-10-31T04:04:17.977Z,98365.03
2023-10-31T04:06:46.670Z,98374.97
2023-10-31T04:09:15.106Z,98377.97
2023-10-31T04:11:44.413Z,98367.47
2023-10-31T04:14:12.419Z,98385.69
2023-10-31T04:16:46.907Z,98382.31
2023-10-31T04:19:15.067Z,98377.16
2023-10-31T04:21:43.047Z,98372.53
2023-10-31T04:24:12.507Z,98376.91
2023-10-31T04:26:42.572Z,98378.00
2023-10-31T04:29:10.595Z,98378.00
2023-10-31T04:31:43.876Z,98376.94
2023-10-31T04:34:12.811Z,98379.63
2023-10-31T04:36:41.038Z,98386.03
2023-10-31T04:39:09.043Z,98374.75
2023-10-31T04:41:38.410Z,98394.09
2023-10-31T04:44:07.345Z,98389.81
2023-10-31T04:46:35.950Z,98397.88
2023-10-31T04:49:04.566Z,98376.38
2023-10-31T04:51:35.905Z,98388.72
2023-10-31T04:54:04.245Z,98381.25
2023-10-31T04:56:32.798Z,98395.22
2023-10-31T04:59:02.554Z,98392.00
2023-10-31T05:01:30.599Z,98390.72
2023-10-31T05:04:06.961Z,98395.03
2023-10-31T05:06:40.650Z,98392.09
2023-10-31T05:09:08.640Z,98390.94
2023-10-31T05:11:37.048Z,98383.97
2023-10-31T05:14:07.050Z,98389.91
2023-10-31T05:16:41.720Z,98385.03
2023-10-31T05:19:09.753Z,98400.13
2023-10-31T05:21:37.832Z,98389.91
2023-10-31T05:24:06.722Z,98385.28
2023-10-31T05:26:34.478Z,98392.59
2023-10-31T05:29:02.516Z,98409.53
2023-10-31T05:31:31.997Z,98404.09
2023-10-31T05:33:59.948Z,98405.97
2023-10-31T05:36:29.186Z,98396.94
2023-10-31T05:38:57.147Z,98415.25
2023-10-31T05:41:25.275Z,98407.19
2023-10-31T05:43:53.403Z,98403.13
2023-10-31T05:46:21.613Z,98413.38
2023-10-31T05:48:52.215Z,98401.75
2023-10-31T05:51:21.340Z,98397.97
2023-10-31T05:53:50.443Z,98406.31
2023-10-31T05:56:18.987Z,98416.81
2023-10-31T05:58:47.457Z,98413.84
2023-10-31T06:01:15.564Z,98420.66
2023-10-31T06:03:45.429Z,98423.03
2023-10-31T06:06:15.039Z,98428.69
2023-10-31T06:08:43.910Z,98433.25
2023-10-31T06:11:13.904Z,98435.13
2023-10-31T06:13:42.246Z,98438.03
2023-10-31T06:16:10.595Z,98441.00
2023-10-31T06:18:41.272Z,98443.94
2023-10-31T06:21:10.497Z,98445.81
2023-10-31T06:23:40.467Z,98439.91
2023-10-31T06:26:08.631Z,98445.34
2023-10-31T06:28:41.386Z,98446.41
2023-10-31T06:31:14.045Z,98444.28
2023-10-31T06:33:42.134Z,98457.19
2023-10-31T06:36:10.960Z,98453.97
2023-10-31T06:38:40.379Z,98444.28
2023-10-31T06:41:08.655Z,98443.72
2023-10-31T06:43:36.994Z,98456.09
2023-10-31T06:46:06.569Z,98458.25
2023-10-31T06:48:34.588Z,98456.03
2023-10-31T06:51:02.617Z,98459.84
2023-10-31T06:53:30.595Z,98451.78
2023-10-31T06:56:00.044Z,98464.44
2023-10-31T06:58:28.182Z,98459.88
2023-10-31T07:00:56.452Z,98460.50
2023-10-31T07:03:24.559Z,98445.69
2023-10-31T07:05:52.631Z,98462.34
2023-10-31T07:08:20.768Z,98462.06
2023-10-31T07:10:48.810Z,98457.78
2023-10-31T07:13:18.984Z,98463.44
2023-10-31T07:15:47.836Z,98466.44
2023-10-31T07:18:15.846Z,98454.63
2023-10-31T07:20:43.835Z,98462.09
2023-10-31T07:23:11.957Z,98466.94
2023-10-31T07:25:39.940Z,98466.38
2023-10-31T07:28:10.706Z,98461.28
2023-10-31T07:30:40.072Z,98453.81
2023-10-31T07:33:08.151Z,98462.06
2023-10-31T07:35:36.149Z,98462.88
2023-10-31T07:38:04.611Z,98463.44
2023-10-31T07:40:32.642Z,98475.81
2023-10-31T07:43:00.632Z,98487.69
2023-10-31T07:45:28.714Z,98488.50
2023-10-31T07:48:20.617Z,98491.44
2023-10-31T07:50:48.639Z,98490.66
2023-10-31T07:53:37.594Z,98500.41
2023-10-31T07:56:06.316Z,98498.44
2023-10-31T07:58:34.288Z,98503.03
2023-10-31T08:01:02.217Z,98504.63
2023-10-31T08:03:31.674Z,98516.47
2023-10-31T08:06:01.530Z,98512.72
2023-10-31T08:08:29.588Z,98520.47
2023-10-31T08:10:58.495Z,98512.97
2023-10-31T08:13:26.559Z,98531.06
2023-10-31T08:15:54.555Z,98515.72
2023-10-31T08:18:27.236Z,98506.59
2023-10-31T08:20:56.666Z,98511.09
2023-10-31T08:23:24.830Z,98509.53
2023-10-31T08:25:55.854Z,98514.34
2023-10-31T08:28:25.853Z,98507.34
2023-10-31T08:30:53.932Z,98509.72
2023-10-31T08:33:22.049Z,98507.66
2023-10-31T08:35:50.672Z,98517.59
2023-10-31T08:38:27.566Z,98502.53
2023-10-31T08:41:06.207Z,98503.00
2023-10-31T08:43:34.269Z,98512.13
2023-10-31T08:46:02.374Z,98512.69
2023-10-31T08:48:32.894Z,98517.25
2023-10-31T08:51:01.069Z,98519.41
2023-10-31T08:53:34.714Z,98521.34
2023-10-31T08:56:03.364Z,98516.47
2023-10-31T08:59:12.942Z,98515.41
2023-10-31T09:04:58.347Z,98525.47
2023-10-31T09:07:29.719Z,98528.16
2023-10-31T09:09:59.394Z,98525.13
2023-10-31T09:12:28.455Z,98526.47
2023-10-31T09:14:57.821Z,98530.78
2023-10-31T09:17:38.487Z,98529.75
2023-10-31T09:20:25.121Z,98524.41
2023-10-31T09:22:53.809Z,98519.28
2023-10-31T09:25:28.095Z,98530.66
2023-10-31T09:28:07.490Z,98529.84
2023-10-31T09:30:43.175Z,98520.72
2023-10-31T09:33:21.120Z,98522.88
2023-10-31T09:36:13.082Z,98517.50
2023-10-31T09:38:45.795Z,98517.03
2023-10-31T09:41:25.860Z,98511.63
2023-10-31T09:44:35.803Z,98512.38
2023-10-31T09:47:06.828Z,98504.38
2023-10-31T09:50:06.113Z,98500.59
2023-10-31T09:52:51.339Z,98507.13
2023-10-31T09:55:43.974Z,98502.22
2023-10-31T09:58:34.315Z,98496.84
2023-10-31T10:01:04.743Z,98515.19
2023-10-31T10:03:37.225Z,98514.91
2023-10-31T10:11:56.183Z,98503.84
2023-10-31T10:14:56.169Z,98507.06
2023-10-31T10:17:35.575Z,98502.22
2023-10-31T10:20:11.627Z,98513.50
2023-10-31T10:23:28.641Z,98503.03
2023-10-31T10:26:38.017Z,98493.66
2023-10-31T10:29:06.543Z,98504.91
2023-10-31T10:31:39.720Z,98502.22
2023-10-31T10:34:08.432Z,98505.97
2023-10-31T10:36:36.739Z,98506.28
2023-10-31T10:39:27.569Z,98505.50
2023-10-31T10:42:09.883Z,98498.47
2023-10-31T10:44:55.450Z,98501.69
2023-10-31T10:48:07.073Z,98497.31
2023-10-31T10:50:56.549Z,98500.00
2023-10-31T10:54:16.825Z,98490.25
2023-10-31T10:56:50.209Z,98492.06
2023-10-31T10:59:25.797Z,98485.34
2023-10-31T11:02:02.385Z,98491.72
2023-10-31T11:04:34.061Z,98491.72
2023-10-31T11:07:24.170Z,98490.66
2023-10-31T11:10:08.288Z,98499.25
2023-10-31T11:12:57.993Z,98490.66
2023-10-31T11:15:38.917Z,98479.41
2023-10-31T11:18:15.149Z,98489.91
2023-10-31T11:20:45.217Z,98472.38
2023-10-31T11:23:22.234Z,98476.16
2023-10-31T11:25:57.313Z,98473.66
2023-10-31T11:29:06.181Z,98468.81
2023-10-31T11:32:19.300Z,98455.69
2023-10-31T11:34:48.995Z,98454.16
2023-10-31T11:37:37.033Z,98450.97
2023-10-31T11:43:19.105Z,98462.81
2023-10-31T11:45:50.461Z,98458.97
2023-10-31T11:48:18.509Z,98467.56
2023-10-31T11:50:57.567Z,98468.63
2023-10-31T11:53:28.698Z,98466.69
2023-10-31T11:56:00.911Z,98471.25
2023-10-31T11:58:45.330Z,98459.50
2023-10-31T12:01:16.927Z,98463.50
2023-10-31T12:03:48.855Z,98464.63
2023-10-31T12:06:21.698Z,98465.97
2023-10-31T12:08:52.024Z,98477.66
2023-10-31T12:11:24.444Z,98462.03
2023-10-31T12:13:57.455Z,98483.56
2023-10-31T12:16:27.505Z,98472.81
2023-10-31T12:19:06.479Z,98478.22
2023-10-31T12:21:39.946Z,98465.88
2023-10-31T12:24:12.423Z,98479.03
2023-10-31T12:26:43.231Z,98486.25
2023-10-31T12:29:13.073Z,98482.19
2023-10-31T12:31:52.264Z,98469.53
2023-10-31T12:34:26.966Z,98491.53
2023-10-31T12:36:56.223Z,98475.09
2023-10-31T12:39:28.233Z,98475.91
2023-10-31T12:41:58.059Z,98471.88
2023-10-31T12:44:30.150Z,98469.53
2023-10-31T12:47:01.459Z,98463.03
2023-10-31T12:49:29.665Z,98475.44
2023-10-31T12:51:59.257Z,98461.16
2023-10-31T12:54:37.399Z,98475.88
2023-10-31T12:57:09.298Z,98479.06
2023-10-31T12:59:39.306Z,98462.91
2023-10-31T13:02:09.771Z,98461.25
2023-10-31T13:04:38.331Z,98470.44
2023-10-31T13:07:08.692Z,98466.09
2023-10-31T13:09:43.274Z,98472.25
2023-10-31T13:12:15.119Z,98471.44
2023-10-31T13:14:46.074Z,98472.53
2023-10-31T13:17:16.118Z,98470.38
2023-10-31T13:19:44.253Z,98483.56
2023-10-31T13:22:14.468Z,98457.75
2023-10-31T13:24:47.022Z,98460.16
2023-10-31T13:27:17.848Z,98465.59
2023-10-31T13:29:47.104Z,98463.47
2023-10-31T13:32:15.136Z,98458.91
2023-10-31T13:34:43.289Z,98453.47
2023-10-31T13:37:13.208Z,98444.84
2023-10-31T13:39:51.553Z,98453.16
2023-10-31T13:42:23.317Z,98455.84
2023-10-31T13:44:51.470Z,98448.88
2023-10-31T13:47:21.663Z,98458.00
2023-10-31T13:49:49.886Z,98445.59
2023-10-31T13:52:19.762Z,98454.72
2023-10-31T13:54:47.987Z,98455.03
2023-10-31T13:57:17.493Z,98455.84
2023-10-31T13:59:49.034Z,98454.72
2023-10-31T14:02:19.323Z,98445.59
2023-10-31T14:04:58.491Z,98448.28
2023-10-31T14:07:44.416Z,98447.25
2023-10-31T14:10:15.467Z,98443.97
2023-10-31T14:12:43.520Z,98436.19
2023-10-31T14:15:13.049Z,98451.50
2023-10-31T14:17:41.679Z,98453.28
2023-10-31T14:20:13.249Z,98450.31
2023-10-31T14:22:41.292Z,98447.13
2023-10-31T14:25:51.438Z,98453.38
2023-10-31T14:28:24.729Z,98450.94
2023-10-31T14:30:55.262Z,98452.00
2023-10-31T14:33:23.384Z,98453.28
2023-10-31T14:35:51.461Z,98457.59
2023-10-31T14:38:19.590Z,98454.69
2023-10-31T14:40:47.601Z,98454.16
2023-10-31T14:43:19.373Z,98451.75
2023-10-31T14:45:47.856Z,98449.53
2023-10-31T14:48:17.244Z,98452.50
2023-10-31T14:50:45.261Z,98444.13
2023-10-31T14:53:13.390Z,98442.78
2023-10-31T14:55:41.552Z,98443.59
2023-10-31T14:58:12.247Z,98453.00
2023-10-31T15:00:40.567Z,98448.38
2023-10-31T15:03:08.762Z,98448.69
2023-10-31T15:05:38.201Z,98442.78
2023-10-31T15:08:11.727Z,98438.97
2023-10-31T15:10:39.818Z,98443.78
2023-10-31T15:13:19.833Z,98436.78
2023-10-31T15:15:50.316Z,98442.38
2023-10-31T15:18:21.581Z,98436.78
2023-10-31T15:20:51.149Z,98451.28
2023-10-31T15:23:19.328Z,98447.53
2023-10-31T15:25:58.509Z,98434.09
2023-10-31T15:28:34.505Z,98438.09
2023-10-31T15:31:06.684Z,98440.53
2023-10-31T15:33:34.699Z,98438.59
2023-10-31T15:36:04.481Z,98441.34
2023-10-31T15:38:32.645Z,98436.78
2023-10-31T15:41:10.911Z,98430.59
2023-10-31T15:43:43.206Z,98426.88
2023-10-31T15:46:14.464Z,98426.88
2023-10-31T15:48:43.268Z,98427.16
2023-10-31T15:51:12.809Z,98432.03
2023-10-31T15:53:42.043Z,98419.63
2023-10-31T15:56:11.414Z,98427.16
2023-10-31T15:58:41.045Z,98418.03
2023-10-31T16:01:09.522Z,98414.78
2023-10-31T16:03:37.927Z,98415.34
2023-10-31T16:06:06.930Z,98415.09
2023-10-31T16:08:36.396Z,98409.44
2023-10-31T16:11:07.874Z,98407.28
2023-10-31T16:13:38.642Z,98418.03
2023-10-31T16:16:07.820Z,98416.97
2023-10-31T16:18:35.956Z,98412.97
2023-10-31T16:21:05.736Z,98416.41
2023-10-31T16:23:40.857Z,98419.34
2023-10-31T16:26:09.179Z,98427.94
2023-10-31T16:28:38.495Z,98428.47
2023-10-31T16:31:06.701Z,98416.41
2023-10-31T16:33:36.595Z,98421.28
2023-10-31T16:36:07.364Z,98424.53
2023-10-31T16:38:41.181Z,98417.03
2023-10-31T16:41:15.978Z,98421.84
2023-10-31T16:43:44.182Z,98431.25
2023-10-31T16:46:22.845Z,98423.47
2023-10-31T16:48:50.978Z,98425.63
2023-10-31T16:51:19.594Z,98420.78
2023-10-31T16:53:50.130Z,98419.66
2023-10-31T16:56:22.593Z,98414.28
2023-10-31T16:58:50.886Z,98418.03
2023-10-31T17:01:18.997Z,98420.97
2023-10-31T17:03:47.153Z,98424.44
2023-10-31T17:06:16.307Z,98430.09
2023-10-31T17:08:58.482Z,98430.91
2023-10-31T17:11:27.554Z,98423.09
2023-10-31T17:14:03.069Z,98427.34
2023-10-31T17:16:39.853Z,98425.81
2023-10-31T17:19:09.550Z,98424.53
2023-10-31T17:21:37.733Z,98433.06
2023-10-31T17:24:16.072Z,98424.22
2023-10-31T17:26:44.902Z,98419.66
2023-10-31T17:29:12.987Z,98419.09
2023-10-31T17:31:41.350Z,98416.94
2023-10-31T17:34:10.801Z,98432.03
2023-10-31T17:36:38.841Z,98425.81
2023-10-31T17:39:10.116Z,98427.41
2023-10-31T17:41:38.235Z,98415.31
2023-10-31T17:44:14.745Z,98413.69
2023-10-31T17:46:46.409Z,98409.50
2023-10-31T17:49:14.584Z,98408.09
2023-10-31T17:51:45.769Z,98397.13
2023-10-31T17:54:17.348Z,98409.72
2023-10-31T17:56:47.593Z,98410.78
2023-10-31T17:59:15.712Z,98396.56
2023-10-31T18:02:07.885Z,98399.50
2023-10-31T18:04:41.629Z,98401.38
2023-10-31T18:07:27.345Z,98401.38
2023-10-31T18:09:57.968Z,98399.19
2023-10-31T18:12:26.007Z,98409.44
2023-10-31T18:14:55.912Z,98406.19
2023-10-31T18:17:24.009Z,98408.88
2023-10-31T18:19:57.912Z,98401.38
2023-10-31T18:22:27.466Z,98402.97
2023-10-31T18:25:11.451Z,98396.47
2023-10-31T18:27:41.490Z,98403.44
2023-10-31T18:30:12.788Z,98392.09
2023-10-31T18:32:40.891Z,98405.03
2023-10-31T18:35:09.859Z,98401.22
2023-10-31T18:37:38.215Z,98398.84
2023-10-31T18:40:11.801Z,98392.09
2023-10-31T18:42:43.533Z,98397.72
2023-10-31T18:45:15.724Z,98400.72
2023-10-31T18:47:47.196Z,98399.59
2023-10-31T18:50:17.008Z,98400.59
2023-10-31T18:52:47.210Z,98408.81
2023-10-31T18:55:21.274Z,98405.03
2023-10-31T18:58:07.846Z,98407.97
2023-10-31T19:01:04.748Z,98407.22
2023-10-31T19:03:33.058Z,98392.63
2023-10-31T19:06:10.426Z,98402.53
2023-10-31T19:08:38.487Z,98409.78
2023-10-31T19:11:15.473Z,98412.16
2023-10-31T19:13:46.637Z,98399.81
2023-10-31T19:16:18.601Z,98404.13
2023-10-31T19:18:49.188Z,98400.13
2023-10-31T19:21:19.647Z,98399.03
2023-10-31T19:23:50.536Z,98410.91
2023-10-31T19:26:20.417Z,98398.53
2023-10-31T19:28:48.489Z,98409.22
2023-10-31T19:31:16.615Z,98413.28
2023-10-31T19:33:44.703Z,98411.16
2023-10-31T19:36:12.788Z,98409.28
2023-10-31T19:38:42.085Z,98399.38
2023-10-31T19:41:12.901Z,98403.72
2023-10-31T19:43:44.079Z,98394.03
2023-10-31T19:46:12.134Z,98390.38
2023-10-31T19:48:43.996Z,98392.50
2023-10-31T19:51:14.576Z,98391.44
2023-10-31T19:53:42.799Z,98400.28
2023-10-31T19:56:18.347Z,98386.63
2023-10-31T19:58:47.853Z,98402.44
2023-10-31T20:01:16.327Z,98404.53
2023-10-31T20:03:44.641Z,98401.63
2023-10-31T20:06:15.751Z,98396.81
2023-10-31T20:08:49.793Z,98380.16
2023-10-31T20:11:19.340Z,98385.50
2023-10-31T20:13:49.715Z,98383.38
2023-10-31T20:16:21.096Z,98389.31
2023-10-31T20:18:56.281Z,98389.38
2023-10-31T20:21:24.327Z,98390.91
2023-10-31T20:23:52.376Z,98396.84
2023-10-31T20:26:23.187Z,98398.50
2023-10-31T20:28:54.750Z,98407.38
2023-10-31T20:31:24.145Z,98396.34
2023-10-31T20:33:52.290Z,98398.22
2023-10-31T20:36:26.302Z,98407.09
2023-10-31T20:39:00.249Z,98399.84
2023-10-31T20:41:28.228Z,98401.22
2023-10-31T20:43:57.817Z,98403.34
2023-10-31T20:46:28.802Z,98401.22
2023-10-31T20:48:57.040Z,98405.03
2023-10-31T20:51:32.293Z,98398.59
2023-10-31T20:54:01.290Z,98402.97
2023-10-31T20:56:44.534Z,98410.44
2023-10-31T20:59:18.661Z,98401.53
2023-10-31T21:01:49.651Z,98402.34
2023-10-31T21:04:17.702Z,98397.47
2023-10-31T21:06:48.866Z,98399.13
2023-10-31T21:09:18.248Z,98400.72
2023-10-31T21:11:46.548Z,98401.28
2023-10-31T21:14:16.176Z,98411.94
2023-10-31T21:16:46.990Z,98415.41
2023-10-31T21:19:21.502Z,98411.31
2023-10-31T21:21:53.062Z,98401.16
2023-10-31T21:24:24.130Z,98403.34
2023-10-31T21:26:52.164Z,98404.66
2023-10-31T21:29:21.523Z,98404.16
2023-10-31T21:31:51.252Z,98415.13
2023-10-31T21:34:22.492Z,98413.56
2023-10-31T21:36:58.404Z,98408.19
2023-10-31T21:39:31.535Z,98399.06
2023-10-31T21:42:06.975Z,98401.53
2023-10-31T21:44:44.693Z,98402.34
2023-10-31T21:47:13.000Z,98404.69
2023-10-31T21:49:41.056Z,98394.78
2023-10-31T21:52:11.132Z,98393.72
2023-10-31T21:54:42.119Z,98384.28
2023-10-31T21:57:13.726Z,98391.59
2023-10-31T21:59:47.257Z,98387.84
2023-10-31T22:02:15.727Z,98387.34
2023-10-31T22:04:53.321Z,98386.22
2023-10-31T22:07:21.402Z,98388.34
2023-10-31T22:09:49.594Z,98394.47
2023-10-31T22:12:19.899Z,98399.03
2023-10-31T22:14:52.176Z,98405.16
2023-10-31T22:17:22.543Z,98401.63
2023-10-31T22:19:50.589Z,98408.59
2023-10-31T22:22:21.178Z,98404.78
2023-10-31T22:24:49.288Z,98409.03
2023-10-31T22:27:17.401Z,98402.88
2023-10-31T22:29:45.420Z,98406.34
2023-10-31T22:32:18.979Z,98417.03
2023-10-31T22:34:52.606Z,98418.91
2023-10-31T22:37:28.213Z,98418.59
2023-10-31T22:39:58.639Z,98419.63
2023-10-31T22:42:26.767Z,98413.78
2023-10-31T22:44:57.785Z,98423.13
2023-10-31T22:47:27.419Z,98412.59
2023-10-31T22:49:58.570Z,98419.03
2023-10-31T22:52:26.549Z,98413.34
2023-10-31T22:54:54.586Z,98414.09
2023-10-31T22:57:22.573Z,98416.84
2023-10-31T22:59:50.689Z,98414.66
2023-10-31T23:02:20.091Z,98417.81
2023-10-31T23:04:56.789Z,98417.22
2023-10-31T23:07:24.969Z,98419.38
2023-10-31T23:09:53.091Z,98417.78
2023-10-31T23:12:22.925Z,98418.31
2023-10-31T23:14:50.910Z,98413.25
2023-10-31T23:17:19.129Z,98412.53
2023-10-31T23:19:54.107Z,98422.38
2023-10-31T23:22:24.048Z,98425.13
2023-10-31T23:24:52.149Z,98426.25
2023-10-31T23:27:20.344Z,98419.75
2023-10-31T23:29:51.308Z,98428.06
2023-10-31T23:32:21.548Z,98431.81
2023-10-31T23:34:49.855Z,98434.97
2023-10-31T23:37:17.996Z,98428.50
2023-10-31T23:39:47.496Z,98436.59
2023-10-31T23:42:17.721Z,98440.94
2023-10-31T23:44:47.811Z,98431.19
2023-10-31T23:47:18.360Z,98433.59
2023-10-31T23:49:46.613Z,98431.66
2023-10-31T23:52:15.455Z,98434.94
2023-10-31T23:54:43.704Z,98434.41
2023-10-31T23:57:15.823Z,98436.84
2023-10-31T23:59:44.012Z,98435.56
